sensor_id;sensor_type;location;lat;lon;timestamp;P1;durP1;ratioP1;P2;durP2;ratioP2
18973;SDS011;9621;48.690;9.466;2022-07-22T00:00:55;21.58;;;19.88;;
18973;SDS011;9621;48.690;9.466;2022-07-22T00:03:23;21.02;;;19.52;;
18973;SDS011;9621;48.690;9.466;2022-07-22T00:05:50;21.33;;;19.80;;
18973;SDS011;9621;48.690;9.466;2022-07-22T00:08:17;21.92;;;20.23;;
18973;SDS011;9621;48.690;9.466;2022-07-22T00:10:44;22.40;;;20.75;;
18973;SDS011;9621;48.690;9.466;2022-07-22T00:13:11;22.73;;;20.90;;
18973;SDS011;9621;48.690;9.466;2022-07-22T00:15:38;22.65;;;20.83;;
18973;SDS011;9621;48.690;9.466;2022-07-22T00:18:05;22.02;;;20.35;;
18973;SDS011;9621;48.690;9.466;2022-07-22T00:20:33;22.17;;;20.58;;
18973;SDS011;9621;48.690;9.466;2022-07-22T00:23:00;22.65;;;21.10;;
18973;SDS011;9621;48.690;9.466;2022-07-22T00:25:27;22.42;;;20.80;;
18973;SDS011;9621;48.690;9.466;2022-07-22T00:27:54;22.95;;;21.25;;
18973;SDS011;9621;48.690;9.466;2022-07-22T00:30:21;23.92;;;21.85;;
18973;SDS011;9621;48.690;9.466;2022-07-22T00:32:49;22.17;;;20.63;;
18973;SDS011;9621;48.690;9.466;2022-07-22T00:35:18;21.83;;;20.23;;
18973;SDS011;9621;48.690;9.466;2022-07-22T00:37:47;22.20;;;20.65;;
18973;SDS011;9621;48.690;9.466;2022-07-22T00:40:14;23.35;;;21.65;;
18973;SDS011;9621;48.690;9.466;2022-07-22T00:42:41;22.73;;;20.90;;
18973;SDS011;9621;48.690;9.466;2022-07-22T00:45:09;22.02;;;20.42;;
18973;SDS011;9621;48.690;9.466;2022-07-22T00:47:37;22.70;;;21.05;;
18973;SDS011;9621;48.690;9.466;2022-07-22T00:50:08;22.45;;;20.75;;
18973;SDS011;9621;48.690;9.466;2022-07-22T00:52:35;22.52;;;20.83;;
18973;SDS011;9621;48.690;9.466;2022-07-22T00:55:04;22.80;;;21.15;;
18973;SDS011;9621;48.690;9.466;2022-07-22T00:57:33;23.88;;;21.75;;
18973;SDS011;9621;48.690;9.466;2022-07-22T01:00:00;22.55;;;20.85;;
18973;SDS011;9621;48.690;9.466;2022-07-22T01:02:28;23.23;;;21.48;;
18973;SDS011;9621;48.690;9.466;2022-07-22T01:04:55;17.65;;;15.98;;
18973;SDS011;9621;48.690;9.466;2022-07-22T01:07:22;17.80;;;16.20;;
18973;SDS011;9621;48.690;9.466;2022-07-22T01:09:48;17.45;;;15.77;;
18973;SDS011;9621;48.690;9.466;2022-07-22T01:12:17;23.13;;;21.48;;
18973;SDS011;9621;48.690;9.466;2022-07-22T01:14:44;23.15;;;21.27;;
18973;SDS011;9621;48.690;9.466;2022-07-22T01:17:11;22.95;;;21.15;;
18973;SDS011;9621;48.690;9.466;2022-07-22T01:19:38;23.10;;;21.30;;
18973;SDS011;9621;48.690;9.466;2022-07-22T01:22:06;23.55;;;21.55;;
18973;SDS011;9621;48.690;9.466;2022-07-22T01:24:33;24.30;;;22.05;;
18973;SDS011;9621;48.690;9.466;2022-07-22T01:27:00;23.70;;;22.00;;
18973;SDS011;9621;48.690;9.466;2022-07-22T01:29:28;23.52;;;21.83;;
18973;SDS011;9621;48.690;9.466;2022-07-22T01:31:55;24.50;;;22.30;;
18973;SDS011;9621;48.690;9.466;2022-07-22T01:34:23;24.52;;;22.70;;
18973;SDS011;9621;48.690;9.466;2022-07-22T01:36:50;23.90;;;22.00;;
18973;SDS011;9621;48.690;9.466;2022-07-22T01:39:18;23.98;;;22.08;;
18973;SDS011;9621;48.690;9.466;2022-07-22T01:41:45;23.75;;;21.80;;
18973;SDS011;9621;48.690;9.466;2022-07-22T01:44:12;23.33;;;21.55;;
18973;SDS011;9621;48.690;9.466;2022-07-22T01:46:39;24.48;;;22.63;;
18973;SDS011;9621;48.690;9.466;2022-07-22T01:49:06;23.23;;;21.25;;
18973;SDS011;9621;48.690;9.466;2022-07-22T01:51:32;24.00;;;22.17;;
18973;SDS011;9621;48.690;9.466;2022-07-22T01:54:00;24.17;;;22.20;;
18973;SDS011;9621;48.690;9.466;2022-07-22T01:56:28;24.83;;;22.83;;
18973;SDS011;9621;48.690;9.466;2022-07-22T01:58:55;23.25;;;21.55;;
18973;SDS011;9621;48.690;9.466;2022-07-22T02:01:22;24.35;;;22.45;;
18973;SDS011;9621;48.690;9.466;2022-07-22T02:03:50;23.33;;;21.48;;
18973;SDS011;9621;48.690;9.466;2022-07-22T02:06:16;25.10;;;22.65;;
18973;SDS011;9621;48.690;9.466;2022-07-22T02:08:43;23.95;;;22.05;;
18973;SDS011;9621;48.690;9.466;2022-07-22T02:11:10;23.13;;;21.23;;
18973;SDS011;9621;48.690;9.466;2022-07-22T02:13:39;24.33;;;22.08;;
18973;SDS011;9621;48.690;9.466;2022-07-22T02:16:06;23.73;;;21.92;;
18973;SDS011;9621;48.690;9.466;2022-07-22T02:18:33;24.05;;;21.98;;
18973;SDS011;9621;48.690;9.466;2022-07-22T02:21:00;24.73;;;22.85;;
18973;SDS011;9621;48.690;9.466;2022-07-22T02:23:26;24.15;;;22.20;;
18973;SDS011;9621;48.690;9.466;2022-07-22T02:25:54;24.83;;;22.50;;
18973;SDS011;9621;48.690;9.466;2022-07-22T02:28:21;24.35;;;22.42;;
18973;SDS011;9621;48.690;9.466;2022-07-22T02:30:50;25.02;;;22.80;;
18973;SDS011;9621;48.690;9.466;2022-07-22T02:33:16;24.63;;;22.73;;
18973;SDS011;9621;48.690;9.466;2022-07-22T02:35:44;23.77;;;21.98;;
18973;SDS011;9621;48.690;9.466;2022-07-22T02:38:11;23.65;;;22.02;;
18973;SDS011;9621;48.690;9.466;2022-07-22T02:40:38;24.92;;;22.88;;
18973;SDS011;9621;48.690;9.466;2022-07-22T02:43:04;24.40;;;22.60;;
18973;SDS011;9621;48.690;9.466;2022-07-22T02:45:32;25.23;;;22.90;;
18973;SDS011;9621;48.690;9.466;2022-07-22T02:48:01;24.83;;;23.02;;
18973;SDS011;9621;48.690;9.466;2022-07-22T02:50:28;24.88;;;23.10;;
18973;SDS011;9621;48.690;9.466;2022-07-22T02:52:57;25.20;;;22.92;;
18973;SDS011;9621;48.690;9.466;2022-07-22T02:55:24;24.48;;;22.67;;
18973;SDS011;9621;48.690;9.466;2022-07-22T02:57:51;24.00;;;22.20;;
18973;SDS011;9621;48.690;9.466;2022-07-22T03:00:18;26.55;;;24.23;;
18973;SDS011;9621;48.690;9.466;2022-07-22T03:02:45;24.20;;;22.02;;
18973;SDS011;9621;48.690;9.466;2022-07-22T03:05:13;24.38;;;22.60;;
18973;SDS011;9621;48.690;9.466;2022-07-22T03:07:40;24.30;;;22.05;;
18973;SDS011;9621;48.690;9.466;2022-07-22T03:10:07;23.80;;;21.98;;
18973;SDS011;9621;48.690;9.466;2022-07-22T03:12:34;16.63;;;15.18;;
18973;SDS011;9621;48.690;9.466;2022-07-22T03:15:02;18.17;;;16.50;;
18973;SDS011;9621;48.690;9.466;2022-07-22T03:17:32;24.60;;;22.58;;
18973;SDS011;9621;48.690;9.466;2022-07-22T03:20:01;24.83;;;22.90;;
18973;SDS011;9621;48.690;9.466;2022-07-22T03:22:30;23.80;;;22.10;;
18973;SDS011;9621;48.690;9.466;2022-07-22T03:24:57;24.55;;;22.77;;
18973;SDS011;9621;48.690;9.466;2022-07-22T03:27:24;24.40;;;22.55;;
18973;SDS011;9621;48.690;9.466;2022-07-22T03:29:52;24.88;;;22.85;;
18973;SDS011;9621;48.690;9.466;2022-07-22T03:32:18;25.55;;;23.60;;
18973;SDS011;9621;48.690;9.466;2022-07-22T03:34:46;24.67;;;22.88;;
18973;SDS011;9621;48.690;9.466;2022-07-22T03:37:13;25.40;;;23.38;;
18973;SDS011;9621;48.690;9.466;2022-07-22T03:39:41;24.98;;;22.98;;
18973;SDS011;9621;48.690;9.466;2022-07-22T03:42:08;25.15;;;23.27;;
18973;SDS011;9621;48.690;9.466;2022-07-22T03:44:35;24.58;;;22.67;;
18973;SDS011;9621;48.690;9.466;2022-07-22T03:47:02;24.67;;;22.88;;
18973;SDS011;9621;48.690;9.466;2022-07-22T03:49:29;25.25;;;23.20;;
18973;SDS011;9621;48.690;9.466;2022-07-22T03:51:57;24.25;;;22.33;;
18973;SDS011;9621;48.690;9.466;2022-07-22T03:54:24;23.92;;;22.13;;
18973;SDS011;9621;48.690;9.466;2022-07-22T03:56:52;24.50;;;22.25;;
18973;SDS011;9621;48.690;9.466;2022-07-22T03:59:19;10.20;;;7.88;;
18973;SDS011;9621;48.690;9.466;2022-07-22T04:01:46;10.80;;;7.93;;
18973;SDS011;9621;48.690;9.466;2022-07-22T04:04:13;13.95;;;7.63;;
18973;SDS011;9621;48.690;9.466;2022-07-22T04:06:40;12.55;;;8.30;;
18973;SDS011;9621;48.690;9.466;2022-07-22T04:09:07;12.48;;;8.38;;
18973;SDS011;9621;48.690;9.466;2022-07-22T04:11:34;11.90;;;9.30;;
18973;SDS011;9621;48.690;9.466;2022-07-22T04:14:03;12.50;;;9.60;;
18973;SDS011;9621;48.690;9.466;2022-07-22T04:16:30;11.75;;;10.13;;
18973;SDS011;9621;48.690;9.466;2022-07-22T04:18:58;13.02;;;9.23;;
18973;SDS011;9621;48.690;9.466;2022-07-22T04:21:25;12.15;;;9.38;;
18973;SDS011;9621;48.690;9.466;2022-07-22T04:23:52;11.23;;;9.15;;
18973;SDS011;9621;48.690;9.466;2022-07-22T04:26:20;14.27;;;9.05;;
18973;SDS011;9621;48.690;9.466;2022-07-22T04:28:47;10.57;;;8.55;;
18973;SDS011;9621;48.690;9.466;2022-07-22T04:31:15;11.48;;;8.55;;
18973;SDS011;9621;48.690;9.466;2022-07-22T04:33:42;10.15;;;8.02;;
18973;SDS011;9621;48.690;9.466;2022-07-22T04:36:09;9.00;;;6.80;;
18973;SDS011;9621;48.690;9.466;2022-07-22T04:38:36;12.52;;;6.82;;
18973;SDS011;9621;48.690;9.466;2022-07-22T04:41:03;11.00;;;6.82;;
18973;SDS011;9621;48.690;9.466;2022-07-22T04:43:31;8.63;;;5.88;;
18973;SDS011;9621;48.690;9.466;2022-07-22T04:45:58;13.70;;;6.65;;
18973;SDS011;9621;48.690;9.466;2022-07-22T04:48:26;9.25;;;6.30;;
18973;SDS011;9621;48.690;9.466;2022-07-22T04:50:53;9.38;;;6.90;;
18973;SDS011;9621;48.690;9.466;2022-07-22T04:53:25;12.88;;;6.72;;
18973;SDS011;9621;48.690;9.466;2022-07-22T04:55:52;9.45;;;6.68;;
18973;SDS011;9621;48.690;9.466;2022-07-22T04:58:20;8.20;;;7.05;;
18973;SDS011;9621;48.690;9.466;2022-07-22T05:00:48;9.02;;;7.22;;
18973;SDS011;9621;48.690;9.466;2022-07-22T05:03:15;8.20;;;6.57;;
18973;SDS011;9621;48.690;9.466;2022-07-22T05:05:45;9.80;;;6.55;;
18973;SDS011;9621;48.690;9.466;2022-07-22T05:08:12;8.05;;;6.13;;
18973;SDS011;9621;48.690;9.466;2022-07-22T05:10:39;11.52;;;6.63;;
18973;SDS011;9621;48.690;9.466;2022-07-22T05:13:06;9.05;;;7.05;;
18973;SDS011;9621;48.690;9.466;2022-07-22T05:15:33;9.07;;;6.85;;
18973;SDS011;9621;48.690;9.466;2022-07-22T05:18:00;9.25;;;6.90;;
18973;SDS011;9621;48.690;9.466;2022-07-22T05:20:27;10.80;;;6.93;;
18973;SDS011;9621;48.690;9.466;2022-07-22T05:22:55;11.40;;;7.45;;
18973;SDS011;9621;48.690;9.466;2022-07-22T05:25:23;8.90;;;6.75;;
18973;SDS011;9621;48.690;9.466;2022-07-22T05:27:50;7.93;;;6.68;;
18973;SDS011;9621;48.690;9.466;2022-07-22T05:30:18;12.23;;;7.28;;
18973;SDS011;9621;48.690;9.466;2022-07-22T05:32:45;10.77;;;6.85;;
18973;SDS011;9621;48.690;9.466;2022-07-22T05:35:12;9.68;;;6.70;;
18973;SDS011;9621;48.690;9.466;2022-07-22T05:37:39;9.98;;;6.68;;
18973;SDS011;9621;48.690;9.466;2022-07-22T05:40:09;9.88;;;6.85;;
18973;SDS011;9621;48.690;9.466;2022-07-22T05:42:36;8.30;;;7.30;;
18973;SDS011;9621;48.690;9.466;2022-07-22T05:45:04;10.02;;;7.18;;
18973;SDS011;9621;48.690;9.466;2022-07-22T05:47:31;9.88;;;7.13;;
18973;SDS011;9621;48.690;9.466;2022-07-22T05:49:58;9.80;;;7.53;;
18973;SDS011;9621;48.690;9.466;2022-07-22T05:52:25;9.07;;;6.50;;
18973;SDS011;9621;48.690;9.466;2022-07-22T05:54:52;10.63;;;7.07;;
18973;SDS011;9621;48.690;9.466;2022-07-22T05:57:20;11.35;;;7.18;;
18973;SDS011;9621;48.690;9.466;2022-07-22T05:59:47;7.50;;;6.68;;
18973;SDS011;9621;48.690;9.466;2022-07-22T06:02:14;7.50;;;6.80;;
18973;SDS011;9621;48.690;9.466;2022-07-22T06:04:41;8.18;;;6.82;;
18973;SDS011;9621;48.690;9.466;2022-07-22T06:07:08;9.07;;;6.40;;
18973;SDS011;9621;48.690;9.466;2022-07-22T06:09:35;9.60;;;7.20;;
18973;SDS011;9621;48.690;9.466;2022-07-22T06:12:02;8.52;;;6.82;;
18973;SDS011;9621;48.690;9.466;2022-07-22T06:14:31;10.55;;;6.60;;
18973;SDS011;9621;48.690;9.466;2022-07-22T06:16:58;9.40;;;6.93;;
18973;SDS011;9621;48.690;9.466;2022-07-22T06:19:25;8.68;;;6.60;;
18973;SDS011;9621;48.690;9.466;2022-07-22T06:21:54;9.18;;;6.55;;
18973;SDS011;9621;48.690;9.466;2022-07-22T06:24:21;9.85;;;6.40;;
18973;SDS011;9621;48.690;9.466;2022-07-22T06:26:48;7.75;;;6.05;;
18973;SDS011;9621;48.690;9.466;2022-07-22T06:29:15;7.13;;;5.72;;
18973;SDS011;9621;48.690;9.466;2022-07-22T06:31:43;10.15;;;6.15;;
18973;SDS011;9621;48.690;9.466;2022-07-22T06:34:10;13.18;;;6.85;;
18973;SDS011;9621;48.690;9.466;2022-07-22T06:36:37;6.75;;;6.05;;
18973;SDS011;9621;48.690;9.466;2022-07-22T06:39:04;6.60;;;5.95;;
18973;SDS011;9621;48.690;9.466;2022-07-22T06:41:31;8.27;;;6.03;;
18973;SDS011;9621;48.690;9.466;2022-07-22T06:43:58;7.38;;;6.22;;
18973;SDS011;9621;48.690;9.466;2022-07-22T06:46:25;7.43;;;5.95;;
18973;SDS011;9621;48.690;9.466;2022-07-22T06:48:53;9.38;;;5.75;;
18973;SDS011;9621;48.690;9.466;2022-07-22T06:51:20;8.35;;;6.55;;
18973;SDS011;9621;48.690;9.466;2022-07-22T06:53:47;11.13;;;5.68;;
18973;SDS011;9621;48.690;9.466;2022-07-22T06:56:14;8.43;;;6.40;;
18973;SDS011;9621;48.690;9.466;2022-07-22T06:58:41;6.80;;;6.05;;
18973;SDS011;9621;48.690;9.466;2022-07-22T07:01:08;9.63;;;6.18;;
18973;SDS011;9621;48.690;9.466;2022-07-22T07:03:35;8.00;;;6.20;;
18973;SDS011;9621;48.690;9.466;2022-07-22T07:06:04;6.93;;;6.22;;
18973;SDS011;9621;48.690;9.466;2022-07-22T07:08:32;8.02;;;6.18;;
18973;SDS011;9621;48.690;9.466;2022-07-22T07:10:59;7.13;;;5.97;;
18973;SDS011;9621;48.690;9.466;2022-07-22T07:13:28;6.85;;;5.75;;
18973;SDS011;9621;48.690;9.466;2022-07-22T07:15:55;11.02;;;5.97;;
18973;SDS011;9621;48.690;9.466;2022-07-22T07:18:23;5.93;;;4.97;;
18973;SDS011;9621;48.690;9.466;2022-07-22T07:20:50;7.38;;;5.72;;
18973;SDS011;9621;48.690;9.466;2022-07-22T07:23:18;9.48;;;6.32;;
18973;SDS011;9621;48.690;9.466;2022-07-22T07:25:45;7.88;;;5.80;;
18973;SDS011;9621;48.690;9.466;2022-07-22T07:28:12;7.05;;;5.93;;
18973;SDS011;9621;48.690;9.466;2022-07-22T07:30:39;6.85;;;5.95;;
18973;SDS011;9621;48.690;9.466;2022-07-22T07:33:06;7.65;;;6.38;;
18973;SDS011;9621;48.690;9.466;2022-07-22T07:35:33;6.20;;;5.13;;
18973;SDS011;9621;48.690;9.466;2022-07-22T07:38:00;7.80;;;6.05;;
18973;SDS011;9621;48.690;9.466;2022-07-22T07:40:28;7.10;;;6.10;;
18973;SDS011;9621;48.690;9.466;2022-07-22T07:42:55;8.85;;;6.28;;
18973;SDS011;9621;48.690;9.466;2022-07-22T07:45:22;7.70;;;6.05;;
18973;SDS011;9621;48.690;9.466;2022-07-22T07:47:49;9.68;;;6.00;;
18973;SDS011;9621;48.690;9.466;2022-07-22T07:50:16;6.55;;;5.13;;
18973;SDS011;9621;48.690;9.466;2022-07-22T07:52:44;7.80;;;6.50;;
18973;SDS011;9621;48.690;9.466;2022-07-22T07:55:12;7.03;;;6.32;;
18973;SDS011;9621;48.690;9.466;2022-07-22T07:57:41;8.77;;;6.15;;
18973;SDS011;9621;48.690;9.466;2022-07-22T08:00:14;7.50;;;5.90;;
18973;SDS011;9621;48.690;9.466;2022-07-22T08:02:42;6.57;;;5.93;;
18973;SDS011;9621;48.690;9.466;2022-07-22T08:05:09;7.00;;;6.03;;
18973;SDS011;9621;48.690;9.466;2022-07-22T08:07:36;7.65;;;5.90;;
18973;SDS011;9621;48.690;9.466;2022-07-22T08:10:04;5.82;;;5.32;;
18973;SDS011;9621;48.690;9.466;2022-07-22T08:12:32;7.82;;;6.72;;
18973;SDS011;9621;48.690;9.466;2022-07-22T08:15:00;8.35;;;6.03;;
18973;SDS011;9621;48.690;9.466;2022-07-22T08:17:27;5.80;;;5.30;;
18973;SDS011;9621;48.690;9.466;2022-07-22T08:19:54;8.88;;;6.22;;
18973;SDS011;9621;48.690;9.466;2022-07-22T08:22:21;7.13;;;6.03;;
18973;SDS011;9621;48.690;9.466;2022-07-22T08:24:48;8.10;;;5.40;;
18973;SDS011;9621;48.690;9.466;2022-07-22T08:27:15;7.28;;;5.75;;
18973;SDS011;9621;48.690;9.466;2022-07-22T08:29:42;5.85;;;5.03;;
18973;SDS011;9621;48.690;9.466;2022-07-22T08:32:10;6.07;;;5.47;;
18973;SDS011;9621;48.690;9.466;2022-07-22T08:34:37;9.43;;;5.35;;
18973;SDS011;9621;48.690;9.466;2022-07-22T08:37:04;8.38;;;4.80;;
18973;SDS011;9621;48.690;9.466;2022-07-22T08:39:31;8.50;;;4.95;;
18973;SDS011;9621;48.690;9.466;2022-07-22T08:41:59;6.20;;;4.85;;
18973;SDS011;9621;48.690;9.466;2022-07-22T08:44:28;5.78;;;5.20;;
18973;SDS011;9621;48.690;9.466;2022-07-22T08:46:56;6.40;;;5.45;;
18973;SDS011;9621;48.690;9.466;2022-07-22T08:49:24;5.93;;;5.05;;
18973;SDS011;9621;48.690;9.466;2022-07-22T08:51:52;6.63;;;5.22;;
18973;SDS011;9621;48.690;9.466;2022-07-22T08:54:19;6.18;;;4.72;;
18973;SDS011;9621;48.690;9.466;2022-07-22T08:56:47;7.97;;;5.03;;
18973;SDS011;9621;48.690;9.466;2022-07-22T08:59:14;5.10;;;4.60;;
18973;SDS011;9621;48.690;9.466;2022-07-22T09:04:32;7.15;;;5.30;;
18973;SDS011;9621;48.690;9.466;2022-07-22T09:07:22;6.70;;;4.97;;
18973;SDS011;9621;48.690;9.466;2022-07-22T09:09:51;6.30;;;4.18;;
18973;SDS011;9621;48.690;9.466;2022-07-22T09:12:18;5.00;;;4.55;;
18973;SDS011;9621;48.690;9.466;2022-07-22T09:14:46;5.32;;;4.80;;
18973;SDS011;9621;48.690;9.466;2022-07-22T09:17:26;5.43;;;4.65;;
18973;SDS011;9621;48.690;9.466;2022-07-22T09:19:56;6.43;;;5.18;;
18973;SDS011;9621;48.690;9.466;2022-07-22T09:22:31;7.45;;;5.20;;
18973;SDS011;9621;48.690;9.466;2022-07-22T09:25:02;4.68;;;4.13;;
18973;SDS011;9621;48.690;9.466;2022-07-22T09:27:44;5.95;;;4.10;;
18973;SDS011;9621;48.690;9.466;2022-07-22T09:30:11;4.72;;;4.22;;
18973;SDS011;9621;48.690;9.466;2022-07-22T09:32:40;4.72;;;4.32;;
18973;SDS011;9621;48.690;9.466;2022-07-22T09:35:09;4.55;;;4.15;;
18973;SDS011;9621;48.690;9.466;2022-07-22T09:37:36;5.80;;;4.38;;
18973;SDS011;9621;48.690;9.466;2022-07-22T09:40:14;6.45;;;4.35;;
18973;SDS011;9621;48.690;9.466;2022-07-22T09:42:45;7.32;;;4.40;;
18973;SDS011;9621;48.690;9.466;2022-07-22T09:45:14;6.05;;;4.60;;
18973;SDS011;9621;48.690;9.466;2022-07-22T09:47:42;8.52;;;4.93;;
18973;SDS011;9621;48.690;9.466;2022-07-22T09:50:23;5.55;;;4.97;;
18973;SDS011;9621;48.690;9.466;2022-07-22T09:52:52;9.55;;;4.88;;
18973;SDS011;9621;48.690;9.466;2022-07-22T09:55:21;6.40;;;4.78;;
18973;SDS011;9621;48.690;9.466;2022-07-22T09:57:50;9.77;;;5.05;;
18973;SDS011;9621;48.690;9.466;2022-07-22T10:00:19;6.63;;;5.00;;
18973;SDS011;9621;48.690;9.466;2022-07-22T10:02:48;6.57;;;4.85;;
18973;SDS011;9621;48.690;9.466;2022-07-22T10:05:17;6.85;;;5.13;;
18973;SDS011;9621;48.690;9.466;2022-07-22T10:07:48;6.18;;;4.65;;
18973;SDS011;9621;48.690;9.466;2022-07-22T10:10:17;6.55;;;5.07;;
18973;SDS011;9621;48.690;9.466;2022-07-22T10:12:45;8.07;;;5.25;;
18973;SDS011;9621;48.690;9.466;2022-07-22T10:15:15;6.78;;;4.90;;
18973;SDS011;9621;48.690;9.466;2022-07-22T10:17:42;5.60;;;4.85;;
18973;SDS011;9621;48.690;9.466;2022-07-22T10:20:13;6.88;;;5.20;;
18973;SDS011;9621;48.690;9.466;2022-07-22T10:22:57;8.32;;;5.07;;
18973;SDS011;9621;48.690;9.466;2022-07-22T10:25:25;5.47;;;4.97;;
18973;SDS011;9621;48.690;9.466;2022-07-22T10:27:54;6.63;;;4.63;;
18973;SDS011;9621;48.690;9.466;2022-07-22T10:30:23;5.57;;;5.00;;
18973;SDS011;9621;48.690;9.466;2022-07-22T10:33:03;5.15;;;4.65;;
18973;SDS011;9621;48.690;9.466;2022-07-22T10:35:32;8.40;;;5.30;;
18973;SDS011;9621;48.690;9.466;2022-07-22T10:38:12;6.85;;;5.05;;
18973;SDS011;9621;48.690;9.466;2022-07-22T10:40:47;5.45;;;4.70;;
18973;SDS011;9621;48.690;9.466;2022-07-22T10:43:16;5.80;;;4.78;;
18973;SDS011;9621;48.690;9.466;2022-07-22T10:45:45;6.72;;;4.82;;
18973;SDS011;9621;48.690;9.466;2022-07-22T10:48:14;5.55;;;4.80;;
18973;SDS011;9621;48.690;9.466;2022-07-22T10:50:47;5.30;;;4.80;;
18973;SDS011;9621;48.690;9.466;2022-07-22T10:53:18;6.13;;;4.60;;
18973;SDS011;9621;48.690;9.466;2022-07-22T10:58:47;7.13;;;4.78;;
18973;SDS011;9621;48.690;9.466;2022-07-22T11:01:23;7.95;;;4.90;;
18973;SDS011;9621;48.690;9.466;2022-07-22T11:03:52;6.05;;;4.80;;
18973;SDS011;9621;48.690;9.466;2022-07-22T11:06:24;4.78;;;4.38;;
18973;SDS011;9621;48.690;9.466;2022-07-22T11:08:54;6.07;;;4.78;;
18973;SDS011;9621;48.690;9.466;2022-07-22T11:11:43;5.40;;;4.65;;
18973;SDS011;9621;48.690;9.466;2022-07-22T11:14:12;5.80;;;4.95;;
18973;SDS011;9621;48.690;9.466;2022-07-22T11:16:40;5.25;;;4.72;;
18973;SDS011;9621;48.690;9.466;2022-07-22T11:19:08;6.13;;;4.88;;
18973;SDS011;9621;48.690;9.466;2022-07-22T11:21:35;8.23;;;4.88;;
18973;SDS011;9621;48.690;9.466;2022-07-22T11:24:05;5.95;;;4.40;;
18973;SDS011;9621;48.690;9.466;2022-07-22T11:26:35;4.85;;;4.40;;
18973;SDS011;9621;48.690;9.466;2022-07-22T11:29:05;5.40;;;4.47;;
18973;SDS011;9621;48.690;9.466;2022-07-22T11:31:33;6.13;;;4.68;;
18973;SDS011;9621;48.690;9.466;2022-07-22T11:34:07;5.20;;;4.70;;
18973;SDS011;9621;48.690;9.466;2022-07-22T11:36:36;6.68;;;4.40;;
18973;SDS011;9621;48.690;9.466;2022-07-22T11:39:06;5.40;;;4.35;;
18973;SDS011;9621;48.690;9.466;2022-07-22T11:41:34;6.00;;;4.68;;
18973;SDS011;9621;48.690;9.466;2022-07-22T11:44:01;6.28;;;4.70;;
18973;SDS011;9621;48.690;9.466;2022-07-22T11:46:34;5.95;;;4.97;;
18973;SDS011;9621;48.690;9.466;2022-07-22T11:49:02;5.82;;;4.75;;
18973;SDS011;9621;48.690;9.466;2022-07-22T11:51:30;4.93;;;4.53;;
18973;SDS011;9621;48.690;9.466;2022-07-22T11:53:59;7.15;;;4.18;;
18973;SDS011;9621;48.690;9.466;2022-07-22T11:56:28;8.40;;;4.95;;
18973;SDS011;9621;48.690;9.466;2022-07-22T11:58:55;8.25;;;4.28;;
18973;SDS011;9621;48.690;9.466;2022-07-22T12:01:23;4.47;;;4.07;;
18973;SDS011;9621;48.690;9.466;2022-07-22T12:03:52;4.90;;;4.50;;
18973;SDS011;9621;48.690;9.466;2022-07-22T12:06:21;4.82;;;4.43;;
18973;SDS011;9621;48.690;9.466;2022-07-22T12:08:49;5.88;;;4.35;;
18973;SDS011;9621;48.690;9.466;2022-07-22T12:11:18;6.30;;;4.40;;
18973;SDS011;9621;48.690;9.466;2022-07-22T12:13:49;7.85;;;4.40;;
18973;SDS011;9621;48.690;9.466;2022-07-22T12:16:19;5.82;;;4.32;;
18973;SDS011;9621;48.690;9.466;2022-07-22T12:18:55;7.10;;;4.30;;
18973;SDS011;9621;48.690;9.466;2022-07-22T12:21:24;5.78;;;4.30;;
18973;SDS011;9621;48.690;9.466;2022-07-22T12:23:52;6.43;;;4.50;;
18973;SDS011;9621;48.690;9.466;2022-07-22T12:26:41;4.90;;;4.43;;
18973;SDS011;9621;48.690;9.466;2022-07-22T12:29:18;5.45;;;4.40;;
18973;SDS011;9621;48.690;9.466;2022-07-22T12:31:51;6.75;;;4.47;;
18973;SDS011;9621;48.690;9.466;2022-07-22T12:34:29;11.73;;;4.68;;
18973;SDS011;9621;48.690;9.466;2022-07-22T12:36:59;10.95;;;4.50;;
18973;SDS011;9621;48.690;9.466;2022-07-22T12:39:37;5.43;;;4.40;;
18973;SDS011;9621;48.690;9.466;2022-07-22T12:42:14;6.35;;;3.90;;
18973;SDS011;9621;48.690;9.466;2022-07-22T12:44:51;4.75;;;4.28;;
18973;SDS011;9621;48.690;9.466;2022-07-22T12:50:16;5.15;;;3.78;;
18973;SDS011;9621;48.690;9.466;2022-07-22T12:52:54;5.20;;;4.53;;
18973;SDS011;9621;48.690;9.466;2022-07-22T12:55:23;5.20;;;4.40;;
18973;SDS011;9621;48.690;9.466;2022-07-22T12:57:50;5.18;;;4.22;;
18973;SDS011;9621;48.690;9.466;2022-07-22T13:00:20;4.25;;;3.85;;
18973;SDS011;9621;48.690;9.466;2022-07-22T13:02:48;5.68;;;4.20;;
18973;SDS011;9621;48.690;9.466;2022-07-22T13:05:15;5.50;;;4.50;;
18973;SDS011;9621;48.690;9.466;2022-07-22T13:07:43;6.22;;;4.18;;
18973;SDS011;9621;48.690;9.466;2022-07-22T13:10:12;5.78;;;4.20;;
18973;SDS011;9621;48.690;9.466;2022-07-22T13:12:40;5.25;;;4.60;;
18973;SDS011;9621;48.690;9.466;2022-07-22T13:15:07;4.30;;;3.90;;
18973;SDS011;9621;48.690;9.466;2022-07-22T13:17:36;5.00;;;3.97;;
18973;SDS011;9621;48.690;9.466;2022-07-22T13:20:05;4.78;;;3.70;;
18973;SDS011;9621;48.690;9.466;2022-07-22T13:22:33;4.50;;;4.07;;
18973;SDS011;9621;48.690;9.466;2022-07-22T13:25:01;5.57;;;4.30;;
18973;SDS011;9621;48.690;9.466;2022-07-22T13:27:28;5.55;;;3.90;;
18973;SDS011;9621;48.690;9.466;2022-07-22T13:29:55;6.60;;;3.67;;
18973;SDS011;9621;48.690;9.466;2022-07-22T13:32:22;3.97;;;3.67;;
18973;SDS011;9621;48.690;9.466;2022-07-22T13:34:50;5.43;;;4.15;;
18973;SDS011;9621;48.690;9.466;2022-07-22T13:37:18;4.75;;;4.22;;
18973;SDS011;9621;48.690;9.466;2022-07-22T13:39:46;4.47;;;4.05;;
18973;SDS011;9621;48.690;9.466;2022-07-22T13:42:13;6.47;;;3.95;;
18973;SDS011;9621;48.690;9.466;2022-07-22T13:44:42;6.75;;;3.92;;
18973;SDS011;9621;48.690;9.466;2022-07-22T13:47:10;4.47;;;4.07;;
18973;SDS011;9621;48.690;9.466;2022-07-22T13:49:37;4.55;;;3.88;;
18973;SDS011;9621;48.690;9.466;2022-07-22T13:52:06;4.72;;;4.20;;
18973;SDS011;9621;48.690;9.466;2022-07-22T13:54:33;5.07;;;4.22;;
18973;SDS011;9621;48.690;9.466;2022-07-22T13:57:00;5.55;;;3.78;;
18973;SDS011;9621;48.690;9.466;2022-07-22T13:59:29;5.07;;;4.57;;
18973;SDS011;9621;48.690;9.466;2022-07-22T14:01:57;6.55;;;3.97;;
18973;SDS011;9621;48.690;9.466;2022-07-22T14:04:24;4.60;;;3.80;;
18973;SDS011;9621;48.690;9.466;2022-07-22T14:06:52;4.07;;;3.67;;
18973;SDS011;9621;48.690;9.466;2022-07-22T14:09:21;5.20;;;3.90;;
18973;SDS011;9621;48.690;9.466;2022-07-22T14:11:48;4.38;;;3.85;;
18973;SDS011;9621;48.690;9.466;2022-07-22T14:14:15;4.57;;;3.65;;
18973;SDS011;9621;48.690;9.466;2022-07-22T14:16:42;4.75;;;3.92;;
18973;SDS011;9621;48.690;9.466;2022-07-22T14:19:10;4.93;;;3.90;;
18973;SDS011;9621;48.690;9.466;2022-07-22T14:21:39;5.07;;;3.90;;
18973;SDS011;9621;48.690;9.466;2022-07-22T14:24:08;3.95;;;3.65;;
18973;SDS011;9621;48.690;9.466;2022-07-22T14:26:37;6.65;;;3.88;;
18973;SDS011;9621;48.690;9.466;2022-07-22T14:29:05;6.32;;;3.67;;
18973;SDS011;9621;48.690;9.466;2022-07-22T14:31:33;4.85;;;3.50;;
18973;SDS011;9621;48.690;9.466;2022-07-22T14:34:00;4.05;;;3.63;;
18973;SDS011;9621;48.690;9.466;2022-07-22T14:36:28;4.57;;;4.18;;
18973;SDS011;9621;48.690;9.466;2022-07-22T14:38:54;4.93;;;4.43;;
18973;SDS011;9621;48.690;9.466;2022-07-22T14:41:22;4.88;;;3.90;;
18973;SDS011;9621;48.690;9.466;2022-07-22T14:43:50;4.25;;;3.80;;
18973;SDS011;9621;48.690;9.466;2022-07-22T14:46:17;4.50;;;4.10;;
18973;SDS011;9621;48.690;9.466;2022-07-22T14:48:45;5.38;;;3.60;;
18973;SDS011;9621;48.690;9.466;2022-07-22T14:51:17;6.32;;;4.40;;
18973;SDS011;9621;48.690;9.466;2022-07-22T14:53:44;4.38;;;3.90;;
18973;SDS011;9621;48.690;9.466;2022-07-22T14:56:13;4.20;;;3.80;;
18973;SDS011;9621;48.690;9.466;2022-07-22T14:58:40;5.78;;;4.22;;
18973;SDS011;9621;48.690;9.466;2022-07-22T15:01:08;4.50;;;3.78;;
18973;SDS011;9621;48.690;9.466;2022-07-22T15:03:35;4.32;;;3.90;;
18973;SDS011;9621;48.690;9.466;2022-07-22T15:06:02;3.95;;;3.65;;
18973;SDS011;9621;48.690;9.466;2022-07-22T15:08:30;4.15;;;3.72;;